Time;durP1;ratioP1;P1;durP2;ratioP2;P2;SDS_P1;SDS_P2;PMS_P1;PMS_P2;Temp;Humidity;BMP_temperature;BMP_pressure;BME280_temperature;BME280_humidity;BME280_pressure;Samples;Min_cycle;Max_cycle;Signal;HPM_P1;HPM_P2
2022/04/07 00:00:19;;;;;;;0.90;0.68;;;13.20;51.80;;;;;;20544;6816;279431;-78
2022/04/07 00:02:44;;;;;;;0.73;0.73;;;13.60;52.50;;;;;;20574;6816;307365;-79
2022/04/07 00:05:11;;;;;;;1.10;0.87;;;13.50;52.40;;;;;;20598;6816;307279;-79
2022/04/07 00:07:36;;;;;;;0.93;0.70;;;13.70;52.50;;;;;;20816;6816;117787;-79
2022/04/07 00:10:02;;;;;;;1.00;0.90;;;13.50;52.30;;;;;;20600;6816;281011;-78
2022/04/07 00:12:27;;;;;;;1.70;1.00;;;13.50;53.30;;;;;;20577;6816;336253;-78
2022/04/07 00:14:53;;;;;;;1.00;1.00;;;13.60;53.60;;;;;;20603;6816;281997;-79
2022/04/07 00:17:19;;;;;;;1.37;0.90;;;13.70;53.30;;;;;;20806;6816;124063;-78
2022/04/07 00:19:44;;;;;;;0.62;0.62;;;13.50;53.20;;;;;;20810;6816;117259;-78
2022/04/07 00:22:11;;;;;;;0.60;0.60;;;13.10;53.80;;;;;;20797;6816;124529;-78
2022/04/07 00:24:36;;;;;;;0.83;0.83;;;12.80;54.30;;;;;;20817;6816;117761;-78
2022/04/07 00:27:02;;;;;;;0.80;0.80;;;12.50;54.80;;;;;;20815;6815;117508;-78
2022/04/07 00:29:28;;;;;;;0.83;0.80;;;12.30;55.30;;;;;;20816;6816;119185;-79
2022/04/07 00:31:57;;;;;;;0.80;0.80;;;12.00;56.00;;;;;;20812;6816;123557;-78
2022/04/07 00:34:23;;;;;;;0.90;0.90;;;12.20;57.10;;;;;;20586;6816;336296;-77
2022/04/07 00:36:49;;;;;;;0.80;0.80;;;12.20;57.10;;;;;;20818;6816;117714;-77
2022/04/07 00:39:14;;;;;;;1.35;0.93;;;12.20;56.60;;;;;;20609;6816;276584;-78
2022/04/07 00:41:42;;;;;;;0.95;0.82;;;12.40;57.10;;;;;;20821;6816;117236;-78
2022/04/07 00:44:08;;;;;;;1.10;1.10;;;12.30;56.70;;;;;;20600;6816;309650;-77
2022/04/07 00:46:31;;;;;;;0.77;0.77;;;12.50;57.20;;;;;;20778;6816;119310;-77
2022/04/07 00:48:56;;;;;;;0.80;0.80;;;12.40;57.50;;;;;;20815;6816;117125;-78
2022/04/07 00:51:23;;;;;;;0.80;0.80;;;12.20;57.00;;;;;;20602;6816;331821;-77
2022/04/07 00:53:49;;;;;;;0.70;0.70;;;12.30;58.00;;;;;;20813;6816;118351;-78
2022/04/07 00:56:14;;;;;;;0.88;0.88;;;12.30;57.00;;;;;;20789;6816;117187;-77
2022/04/07 00:58:40;;;;;;;0.70;0.70;;;12.00;57.30;;;;;;20810;6816;118540;-76
2022/04/07 01:01:06;;;;;;;1.35;0.98;;;11.80;57.60;;;;;;20806;6816;117151;-79
2022/04/07 01:03:31;;;;;;;0.57;0.57;;;11.70;57.90;;;;;;20809;6816;117170;-78
2022/04/07 01:05:59;;;;;;;1.00;0.65;;;11.50;58.50;;;;;;20820;6816;118718;-77
2022/04/07 01:08:24;;;;;;;0.80;0.80;;;11.40;58.40;;;;;;20806;6816;120152;-76
2022/04/07 01:10:50;;;;;;;0.70;0.70;;;11.40;58.60;;;;;;20602;6816;307901;-77
2022/04/07 01:13:19;;;;;;;1.40;0.85;;;11.60;59.60;;;;;;20606;6816;322489;-77
2022/04/07 01:15:42;;;;;;;0.70;0.70;;;12.00;58.30;;;;;;20802;6816;117090;-78
2022/04/07 01:18:09;;;;;;;0.60;0.60;;;12.00;57.80;;;;;;20793;6816;121212;-78
2022/04/07 01:20:37;;;;;;;0.60;0.60;;;11.90;57.80;;;;;;20598;6816;306912;-77
2022/04/07 01:23:02;;;;;;;0.80;0.80;;;11.90;57.70;;;;;;20592;6816;306837;-77
2022/04/07 01:25:28;;;;;;;0.57;0.57;;;12.30;57.00;;;;;;20797;6816;117230;-79
2022/04/07 01:27:53;;;;;;;0.93;0.55;;;12.30;56.70;;;;;;20804;6816;117404;-77
2022/04/07 01:30:19;;;;;;;1.05;0.70;;;12.00;57.00;;;;;;20573;6816;307196;-78
2022/04/07 01:32:44;;;;;;;0.60;0.60;;;12.10;57.10;;;;;;20811;6816;117315;-79
2022/04/07 01:35:10;;;;;;;0.80;0.80;;;12.10;57.60;;;;;;20819;6816;117233;-77
2022/04/07 01:37:36;;;;;;;0.70;0.70;;;12.00;56.90;;;;;;20590;6815;340156;-77
2022/04/07 01:40:03;;;;;;;0.80;0.80;;;12.00;56.80;;;;;;20797;6816;117495;-77
2022/04/07 01:42:27;;;;;;;0.52;0.52;;;12.00;56.50;;;;;;20785;6816;119535;-79
2022/04/07 01:44:54;;;;;;;0.50;0.50;;;11.80;56.90;;;;;;20801;6816;121121;-78
2022/04/07 01:47:20;;;;;;;0.70;0.70;;;11.70;57.40;;;;;;20797;6816;118364;-79
2022/04/07 01:49:45;;;;;;;0.70;0.70;;;11.50;57.50;;;;;;20808;6816;117552;-78
2022/04/07 01:52:11;;;;;;;0.60;0.60;;;11.40;58.00;;;;;;20782;6816;118445;-77
2022/04/07 01:54:37;;;;;;;0.50;0.50;;;11.30;57.90;;;;;;20808;6816;117498;-77
2022/04/07 01:57:03;;;;;;;0.55;0.55;;;11.30;58.00;;;;;;20812;6816;120965;-78
2022/04/07 01:59:29;;;;;;;0.70;0.70;;;11.20;58.10;;;;;;20809;6816;117653;-77
2022/04/07 02:01:56;;;;;;;0.70;0.70;;;11.20;58.10;;;;;;20812;6816;117172;-77
2022/04/07 02:04:23;;;;;;;0.80;0.80;;;11.20;58.10;;;;;;20805;6816;117795;-78
2022/04/07 02:06:48;;;;;;;0.55;0.55;;;11.20;57.90;;;;;;20810;6816;117307;-77
2022/04/07 02:09:13;;;;;;;0.60;0.60;;;11.20;57.90;;;;;;20814;6816;117112;-77
2022/04/07 02:11:40;;;;;;;0.60;0.60;;;11.20;57.80;;;;;;20807;6816;124171;-79
2022/04/07 02:14:04;;;;;;;0.60;0.60;;;11.20;57.80;;;;;;20596;6816;335510;-79
2022/04/07 02:16:31;;;;;;;0.60;0.60;;;11.50;56.90;;;;;;20581;6816;306041;-77
2022/04/07 02:18:59;;;;;;;0.60;0.60;;;12.00;55.70;;;;;;20805;6816;117187;-79
2022/04/07 02:21:22;;;;;;;0.60;0.60;;;12.10;55.20;;;;;;20748;6816;118015;-77
2022/04/07 02:23:48;;;;;;;0.65;0.65;;;11.90;55.20;;;;;;20603;6816;310629;-79
2022/04/07 02:26:16;;;;;;;0.50;0.50;;;12.10;54.70;;;;;;20796;6816;117466;-77
2022/04/07 02:28:42;;;;;;;1.33;0.70;;;12.10;54.10;;;;;;20809;6816;118564;-77
2022/04/07 02:31:08;;;;;;;1.03;0.70;;;12.00;54.20;;;;;;20802;6816;117890;-76
2022/04/07 02:33:37;;;;;;;0.60;0.60;;;11.80;54.40;;;;;;20599;6816;277775;-78
2022/04/07 02:36:03;;;;;;;0.50;0.50;;;12.00;53.00;;;;;;20804;6816;118286;-77
2022/04/07 02:38:28;;;;;;;0.43;0.43;;;12.10;53.00;;;;;;20804;6816;117280;-77
2022/04/07 02:40:54;;;;;;;0.45;0.45;;;11.90;53.10;;;;;;20821;6816;118508;-78
2022/04/07 02:43:19;;;;;;;0.50;0.50;;;11.80;53.40;;;;;;20611;6816;310773;-79
2022/04/07 02:45:45;;;;;;;0.40;0.40;;;12.00;51.80;;;;;;20826;6816;117211;-77
2022/04/07 02:48:11;;;;;;;0.50;0.50;;;12.00;51.70;;;;;;20594;6815;306995;-77
2022/04/07 02:50:36;;;;;;;0.60;0.60;;;12.20;50.80;;;;;;20589;6816;281050;-77
2022/04/07 02:53:03;;;;;;;0.70;0.60;;;12.80;49.80;;;;;;20572;6816;277852;-77
2022/04/07 02:55:28;;;;;;;0.60;0.60;;;12.80;49.80;;;;;;20795;6816;117407;-78
2022/04/07 02:57:55;;;;;;;0.50;0.50;;;12.70;50.10;;;;;;20585;6816;277018;-76
2022/04/07 03:00:22;;;;;;;0.50;0.50;;;12.70;49.90;;;;;;20774;6816;118696;-77
2022/04/07 03:02:48;;;;;;;0.40;0.40;;;12.60;50.10;;;;;;20818;6816;117227;-77
2022/04/07 03:05:15;;;;;;;0.57;0.57;;;12.10;51.10;;;;;;20820;6816;117676;-77
2022/04/07 03:07:39;;;;;;;0.50;0.50;;;12.10;51.10;;;;;;20594;6816;306959;-77
2022/04/07 03:10:05;;;;;;;0.68;0.40;;;12.30;50.50;;;;;;20600;6816;305999;-78
2022/04/07 03:12:31;;;;;;;0.60;0.60;;;12.60;49.80;;;;;;20796;6816;119396;-77
2022/04/07 03:14:56;;;;;;;0.80;0.52;;;12.50;49.80;;;;;;20828;6816;117255;-77
2022/04/07 03:17:22;;;;;;;0.60;0.60;;;12.30;50.30;;;;;;20598;6816;315629;-77
2022/04/07 03:19:47;;;;;;;0.50;0.50;;;12.40;49.30;;;;;;20604;6816;306865;-78
2022/04/07 03:22:15;;;;;;;0.50;0.50;;;12.60;48.60;;;;;;20559;6816;277296;-77
2022/04/07 03:24:38;;;;;;;0.47;0.47;;;12.90;47.90;;;;;;20808;6816;117583;-77
2022/04/07 03:27:05;;;;;;;1.00;0.63;;;12.80;48.30;;;;;;20600;6816;335514;-77
2022/04/07 03:29:30;;;;;;;0.60;0.60;;;12.80;47.80;;;;;;20590;6816;280026;-78
2022/04/07 03:31:55;;;;;;;0.50;0.50;;;13.00;47.70;;;;;;20814;6816;121677;-77
2022/04/07 03:34:22;;;;;;;0.68;0.68;;;12.80;48.00;;;;;;20591;6816;306151;-77
2022/04/07 03:36:48;;;;;;;0.63;0.63;;;12.80;48.00;;;;;;20596;6816;298329;-76
2022/04/07 03:39:13;;;;;;;0.70;0.70;;;13.00;47.60;;;;;;20812;6816;117212;-77
2022/04/07 03:41:39;;;;;;;0.70;0.70;;;12.80;48.00;;;;;;20596;6816;336385;-77
2022/04/07 03:44:09;;;;;;;0.93;0.70;;;12.70;48.50;;;;;;20813;6816;117629;-77
2022/04/07 03:46:32;;;;;;;0.67;0.67;;;12.70;48.50;;;;;;20782;6816;118355;-73
2022/04/07 03:48:58;;;;;;;0.43;0.43;;;12.40;49.00;;;;;;20813;6816;117477;-72
2022/04/07 03:51:24;;;;;;;0.80;0.57;;;12.20;49.10;;;;;;20604;6816;336454;-72
2022/04/07 03:53:49;;;;;;;0.80;0.70;;;12.20;49.10;;;;;;20822;6816;119157;-72
2022/04/07 03:56:16;;;;;;;1.30;0.70;;;12.00;49.60;;;;;;20802;6816;117683;-72
2022/04/07 03:58:42;;;;;;;0.60;0.60;;;12.00;49.60;;;;;;20605;6816;297786;-69
2022/04/07 04:01:09;;;;;;;1.70;0.60;;;12.40;48.70;;;;;;20592;6815;304564;-66
2022/04/07 04:03:33;;;;;;;0.80;0.80;;;12.40;48.70;;;;;;20598;6816;279473;-66
2022/04/07 04:06:00;;;;;;;0.62;0.62;;;12.90;47.90;;;;;;20603;6816;311402;-65
2022/04/07 04:08:26;;;;;;;0.70;0.70;;;12.70;48.20;;;;;;20799;6816;122629;-66
2022/04/07 04:10:51;;;;;;;0.60;0.60;;;12.70;48.20;;;;;;20808;6816;117423;-65
2022/04/07 04:13:17;;;;;;;0.43;0.43;;;12.40;48.70;;;;;;20817;6816;117376;-65
2022/04/07 04:15:42;;;;;;;0.50;0.50;;;12.00;49.10;;;;;;20822;6816;117892;-65
2022/04/07 04:18:08;;;;;;;0.70;0.70;;;11.80;49.60;;;;;;20799;6816;133039;-67
2022/04/07 04:20:34;;;;;;;0.60;0.60;;;11.70;50.50;;;;;;20602;6816;306516;-66
2022/04/07 04:23:00;;;;;;;0.70;0.70;;;11.70;49.90;;;;;;20602;6816;335549;-66
2022/04/07 04:25:25;;;;;;;0.80;0.80;;;12.00;49.10;;;;;;20609;6816;306528;-66
2022/04/07 04:27:52;;;;;;;0.80;0.80;;;12.10;48.70;;;;;;20819;6816;117937;-66
2022/04/07 04:30:18;;;;;;;0.50;0.50;;;12.00;48.60;;;;;;20791;6816;123394;-65
2022/04/07 04:32:43;;;;;;;0.67;0.67;;;11.70;49.20;;;;;;20813;6816;121129;-65
2022/04/07 04:35:09;;;;;;;0.68;0.68;;;11.50;49.80;;;;;;20598;6816;310830;-66
2022/04/07 04:37:34;;;;;;;0.83;0.70;;;11.60;49.70;;;;;;20599;6816;307254;-66
2022/04/07 04:40:00;;;;;;;1.10;0.70;;;11.90;49.00;;;;;;20817;6816;117440;-66
2022/04/07 04:42:25;;;;;;;0.68;0.68;;;11.70;49.00;;;;;;20546;6816;309480;-65
2022/04/07 04:44:51;;;;;;;0.70;0.70;;;11.80;48.80;;;;;;20802;6816;117616;-67
2022/04/07 04:47:18;;;;;;;0.80;0.70;;;11.80;49.10;;;;;;20576;6816;306850;-67
2022/04/07 04:49:43;;;;;;;3.00;0.70;;;11.80;49.10;;;;;;20812;6816;117896;-68
2022/04/07 04:52:09;;;;;;;1.40;0.90;;;11.50;50.00;;;;;;20782;6816;117391;-66
2022/04/07 04:54:37;;;;;;;0.60;0.60;;;11.40;49.80;;;;;;20809;6816;121006;-66
2022/04/07 04:57:03;;;;;;;0.57;0.57;;;11.30;50.30;;;;;;20602;6816;276885;-66
2022/04/07 04:59:29;;;;;;;0.60;0.60;;;11.50;49.90;;;;;;20805;6816;118575;-68
2022/04/07 05:01:56;;;;;;;1.50;0.63;;;11.60;50.00;;;;;;20808;6816;117927;-71
2022/04/07 05:04:23;;;;;;;0.47;0.40;;;11.50;50.30;;;;;;20785;6816;120813;-67
2022/04/07 05:06:50;;;;;;;1.07;0.50;;;11.30;50.60;;;;;;20823;6816;117223;-67
2022/04/07 05:09:15;;;;;;;0.60;0.60;;;11.30;50.80;;;;;;20609;6816;311012;-67
2022/04/07 05:11:42;;;;;;;0.50;0.50;;;11.50;49.80;;;;;;20606;6814;292654;-67
2022/04/07 05:14:08;;;;;;;0.90;0.60;;;11.90;48.90;;;;;;20608;6816;280725;-66
2022/04/07 05:16:33;;;;;;;0.60;0.60;;;12.30;48.20;;;;;;20605;6816;276572;-67
2022/04/07 05:19:00;;;;;;;0.60;0.60;;;12.60;47.50;;;;;;20626;6816;281007;-67
2022/04/07 05:21:26;;;;;;;0.50;0.50;;;12.80;46.90;;;;;;20809;6816;117122;-66
2022/04/07 05:23:52;;;;;;;0.50;0.50;;;12.30;47.80;;;;;;20812;6816;117393;-66
2022/04/07 05:26:18;;;;;;;0.40;0.40;;;12.30;47.90;;;;;;20796;6816;126891;-67
2022/04/07 05:28:43;;;;;;;0.93;0.50;;;12.10;48.40;;;;;;20602;6816;280179;-67
2022/04/07 05:31:09;;;;;;;0.57;0.57;;;12.20;48.20;;;;;;20811;6816;121873;-67
2022/04/07 05:33:34;;;;;;;0.37;0.30;;;12.20;48.40;;;;;;20605;6816;330615;-66
2022/04/07 05:36:00;;;;;;;0.40;0.40;;;12.30;47.60;;;;;;20823;6816;118016;-67
2022/04/07 05:38:25;;;;;;;0.40;0.40;;;12.30;47.90;;;;;;20591;6816;306056;-68
2022/04/07 05:40:52;;;;;;;0.52;0.43;;;12.40;47.50;;;;;;20818;6816;117351;-66
2022/04/07 05:43:17;;;;;;;0.40;0.40;;;12.40;47.70;;;;;;20598;6816;307489;-66
2022/04/07 05:45:45;;;;;;;0.28;0.28;;;12.50;48.10;;;;;;20816;6816;117169;-67
2022/04/07 05:48:10;;;;;;;0.47;0.40;;;12.50;47.60;;;;;;20782;6816;117656;-68
2022/04/07 05:50:35;;;;;;;0.52;0.40;;;12.40;48.10;;;;;;20781;6816;122098;-66
2022/04/07 05:53:00;;;;;;;0.67;0.50;;;12.20;48.40;;;;;;20563;6816;281565;-67
2022/04/07 05:55:26;;;;;;;0.60;0.50;;;12.40;47.90;;;;;;20591;6816;277515;-67
2022/04/07 05:57:51;;;;;;;0.93;0.43;;;12.70;47.30;;;;;;20798;6816;117493;-67
2022/04/07 06:00:18;;;;;;;1.00;0.30;;;12.50;47.80;;;;;;20782;6816;118375;-67
2022/04/07 06:02:44;;;;;;;2.07;0.60;;;12.50;47.80;;;;;;20809;6816;117962;-67
2022/04/07 06:05:09;;;;;;;0.25;0.25;;;12.40;48.30;;;;;;20814;6816;117953;-67
2022/04/07 06:07:35;;;;;;;0.30;0.30;;;12.20;48.80;;;;;;20806;6816;121091;-66
2022/04/07 06:10:01;;;;;;;0.40;0.40;;;12.20;48.80;;;;;;20801;6816;117809;-67
2022/04/07 06:12:27;;;;;;;0.30;0.30;;;12.30;48.10;;;;;;20571;6816;306959;-66
2022/04/07 06:14:53;;;;;;;0.37;0.37;;;12.40;48.10;;;;;;20812;6816;117696;-66
2022/04/07 06:17:18;;;;;;;0.30;0.30;;;12.50;48.20;;;;;;20603;6816;281086;-67
2022/04/07 06:19:44;;;;;;;0.40;0.40;;;12.70;47.20;;;;;;20813;6816;118362;-66
2022/04/07 06:22:11;;;;;;;0.30;0.30;;;12.80;47.40;;;;;;20793;6816;117529;-67
2022/04/07 06:24:35;;;;;;;1.87;0.52;;;12.80;47.80;;;;;;20598;6815;306782;-66
2022/04/07 06:27:01;;;;;;;0.30;0.30;;;13.00;47.00;;;;;;20823;6816;118255;-66
2022/04/07 06:29:26;;;;;;;0.50;0.50;;;13.10;47.30;;;;;;20600;6816;335874;-66
2022/04/07 06:31:53;;;;;;;0.70;0.40;;;13.40;46.90;;;;;;20817;6816;124150;-66
2022/04/07 06:34:20;;;;;;;0.70;0.33;;;13.40;46.40;;;;;;20581;6816;280553;-67
2022/04/07 06:36:44;;;;;;;0.70;0.30;;;13.80;44.60;;;;;;20599;6816;276631;-67
2022/04/07 06:39:10;;;;;;;0.50;0.40;;;13.80;44.60;;;;;;20608;6816;276899;-67
2022/04/07 06:41:36;;;;;;;0.43;0.32;;;14.00;44.10;;;;;;20592;6816;306084;-67
2022/04/07 06:44:03;;;;;;;0.35;0.30;;;14.00;44.60;;;;;;20816;6816;118272;-66
2022/04/07 06:46:29;;;;;;;0.40;0.40;;;14.00;44.50;;;;;;20589;6816;276989;-66
2022/04/07 06:48:54;;;;;;;1.60;0.30;;;14.10;43.90;;;;;;20612;6816;281649;-66
2022/04/07 06:51:20;;;;;;;0.73;0.40;;;14.30;43.80;;;;;;20605;6816;311550;-66
2022/04/07 06:53:46;;;;;;;0.20;0.20;;;14.50;43.30;;;;;;20824;6816;120527;-66
2022/04/07 06:56:11;;;;;;;0.65;0.37;;;14.40;43.80;;;;;;20792;6816;118378;-66
2022/04/07 06:58:38;;;;;;;0.23;0.23;;;14.00;44.20;;;;;;20814;6816;117662;-66
2022/04/07 07:01:04;;;;;;;0.73;0.50;;;13.80;44.70;;;;;;20595;6816;276655;-66
2022/04/07 07:03:31;;;;;;;0.62;0.35;;;13.80;44.40;;;;;;20810;6816;117845;-66
2022/04/07 07:05:58;;;;;;;0.20;0.20;;;13.80;44.40;;;;;;20799;6816;117937;-66
2022/04/07 07:08:22;;;;;;;0.20;0.20;;;13.40;45.20;;;;;;20779;6816;140987;-66
2022/04/07 07:10:48;;;;;;;0.20;0.20;;;13.40;45.20;;;;;;20811;6816;117410;-66
2022/04/07 07:13:16;;;;;;;0.40;0.40;;;13.40;45.60;;;;;;20795;6816;118823;-66
2022/04/07 07:15:40;;;;;;;0.40;0.30;;;13.30;45.80;;;;;;20588;6816;277153;-66
2022/04/07 07:18:05;;;;;;;0.30;0.30;;;13.50;44.30;;;;;;20590;6816;312756;-66
2022/04/07 07:20:31;;;;;;;0.20;0.20;;;13.80;43.40;;;;;;20560;6816;326324;-66
2022/04/07 07:22:57;;;;;;;0.10;0.10;;;14.10;43.00;;;;;;20804;6816;120113;-66
2022/04/07 07:25:23;;;;;;;0.98;0.55;;;14.10;43.60;;;;;;20798;6816;118810;-66
2022/04/07 07:27:49;;;;;;;1.27;0.30;;;13.90;44.30;;;;;;20788;6816;117962;-66
2022/04/07 07:30:15;;;;;;;3.83;3.53;;;13.80;44.70;;;;;;20779;6816;119467;-66
2022/04/07 07:32:40;;;;;;;11.12;10.23;;;13.60;45.00;;;;;;20566;6816;306630;-66
2022/04/07 07:35:06;;;;;;;1.55;1.45;;;13.80;44.70;;;;;;20597;6815;341276;-66
2022/04/07 07:37:31;;;;;;;0.80;0.80;;;14.10;44.20;;;;;;20608;6816;283410;-67
2022/04/07 07:40:08;;;;;;;1.92;1.83;;;14.30;44.10;;;;;;20818;6816;117401;-66
2022/04/07 07:42:34;;;;;;;1.17;1.17;;;14.30;43.60;;;;;;20813;6816;117555;-67
2022/04/07 07:44:59;;;;;;;1.08;1.08;;;14.00;44.10;;;;;;20600;6816;307411;-67
2022/04/07 07:47:24;;;;;;;1.48;0.90;;;14.10;43.70;;;;;;20604;6816;308844;-66
2022/04/07 07:49:50;;;;;;;2.25;2.15;;;14.40;43.30;;;;;;20604;6816;277017;-67
2022/04/07 07:52:16;;;;;;;0.90;0.90;;;14.60;42.90;;;;;;20581;6816;306985;-66
2022/04/07 07:54:41;;;;;;;1.30;1.30;;;14.80;42.20;;;;;;20601;6816;316658;-66
2022/04/07 07:57:07;;;;;;;1.77;0.63;;;15.00;42.30;;;;;;20821;6816;117888;-66
2022/04/07 07:59:32;;;;;;;0.57;0.47;;;14.80;42.80;;;;;;20813;6816;117248;-66
2022/04/07 08:01:59;;;;;;;1.67;0.60;;;14.30;43.90;;;;;;20815;6816;117417;-66
2022/04/07 08:04:24;;;;;;;0.53;0.50;;;14.30;43.90;;;;;;20780;6816;117306;-66
2022/04/07 08:06:50;;;;;;;1.27;0.40;;;14.10;44.10;;;;;;20818;6816;117579;-66
2022/04/07 08:09:15;;;;;;;0.75;0.60;;;13.90;44.30;;;;;;20821;6816;117373;-66
2022/04/07 08:11:41;;;;;;;1.00;1.00;;;13.80;44.60;;;;;;20598;6816;277423;-66
2022/04/07 08:14:06;;;;;;;1.08;0.60;;;14.00;43.90;;;;;;20811;6816;118352;-66
2022/04/07 08:16:32;;;;;;;1.00;0.80;;;14.00;44.10;;;;;;20582;6816;335645;-66
2022/04/07 08:18:58;;;;;;;0.40;0.40;;;14.10;43.40;;;;;;20813;6816;117092;-66
2022/04/07 08:21:23;;;;;;;0.93;0.77;;;14.20;43.80;;;;;;20817;6816;117039;-66
2022/04/07 08:23:49;;;;;;;1.10;0.40;;;14.00;44.30;;;;;;20823;6816;117062;-66
2022/04/07 08:26:15;;;;;;;0.50;0.40;;;13.90;44.70;;;;;;20801;6816;117745;-67
2022/04/07 08:28:40;;;;;;;0.30;0.30;;;13.80;45.10;;;;;;20810;6816;118077;-66
2022/04/07 08:31:05;;;;;;;0.65;0.50;;;13.80;45.40;;;;;;20590;6816;306892;-67
2022/04/07 08:33:32;;;;;;;0.40;0.40;;;14.20;45.50;;;;;;20821;6816;117488;-66
2022/04/07 08:35:57;;;;;;;0.57;0.57;;;14.20;44.70;;;;;;20812;6816;118251;-70
2022/04/07 08:38:25;;;;;;;0.70;0.40;;;14.20;45.10;;;;;;20581;6816;307320;-68
2022/04/07 08:40:53;;;;;;;0.40;0.40;;;14.40;44.20;;;;;;20817;6816;118479;-68
2022/04/07 08:43:16;;;;;;;0.52;0.52;;;14.50;44.30;;;;;;20800;6816;117137;-68
2022/04/07 08:45:42;;;;;;;0.40;0.40;;;14.40;44.60;;;;;;20806;6816;116968;-69
2022/04/07 08:48:07;;;;;;;1.07;1.07;;;14.30;45.00;;;;;;20807;6815;117868;-68
2022/04/07 08:50:33;;;;;;;1.97;1.87;;;14.20;45.80;;;;;;20781;6816;117420;-71
2022/04/07 08:52:58;;;;;;;1.37;1.17;;;14.10;45.60;;;;;;20598;6816;309381;-69
2022/04/07 08:55:24;;;;;;;1.73;1.10;;;14.40;44.70;;;;;;20809;6816;117113;-68
2022/04/07 08:57:49;;;;;;;0.93;0.47;;;14.60;45.10;;;;;;20594;6816;339975;-71
2022/04/07 09:00:15;;;;;;;0.30;0.30;;;15.00;44.40;;;;;;20791;6816;118705;-71
2022/04/07 09:02:40;;;;;;;1.20;0.50;;;15.30;44.70;;;;;;20595;6816;306522;-69
2022/04/07 09:05:10;;;;;;;0.65;0.43;;;16.00;43.60;;;;;;20817;6816;118698;-71
2022/04/07 09:07:36;;;;;;;1.20;0.40;;;16.40;42.70;;;;;;20601;6816;277763;-71
2022/04/07 09:10:03;;;;;;;0.30;0.30;;;16.60;42.50;;;;;;20814;6816;117074;-70
2022/04/07 09:12:28;;;;;;;1.57;0.47;;;16.60;42.90;;;;;;20790;6816;121039;-70
2022/04/07 09:14:58;;;;;;;0.67;0.50;;;16.60;42.80;;;;;;20810;6816;117720;-71
2022/04/07 09:17:23;;;;;;;0.90;0.40;;;16.50;43.00;;;;;;20592;6816;311330;-71
2022/04/07 09:19:51;;;;;;;0.40;0.30;;;16.60;42.70;;;;;;20814;6816;117676;-70
2022/04/07 09:22:18;;;;;;;0.70;0.67;;;16.50;43.30;;;;;;20577;6816;281836;-69
2022/04/07 09:24:44;;;;;;;0.43;0.37;;;16.50;44.90;;;;;;20565;6816;307422;-70
2022/04/07 09:27:10;;;;;;;0.50;0.50;;;16.70;44.00;;;;;;20610;6816;277002;-69
2022/04/07 09:29:39;;;;;;;0.30;0.30;;;17.10;43.00;;;;;;20598;6816;306357;-72
2022/04/07 09:32:05;;;;;;;0.73;0.40;;;17.00;42.90;;;;;;20590;6816;277039;-70
2022/04/07 09:34:31;;;;;;;0.57;0.30;;;17.30;42.70;;;;;;20550;6816;277063;-70
2022/04/07 09:37:02;;;;;;;0.95;0.30;;;17.40;42.30;;;;;;20589;6816;307182;-70
2022/04/07 09:39:28;;;;;;;2.10;0.40;;;17.60;42.30;;;;;;20597;6816;282309;-71
2022/04/07 09:41:54;;;;;;;0.30;0.30;;;17.80;41.00;;;;;;20594;6816;312869;-70
2022/04/07 09:44:22;;;;;;;0.83;0.40;;;17.80;41.00;;;;;;20783;6816;117629;-71
2022/04/07 09:46:46;;;;;;;0.30;0.30;;;17.30;41.60;;;;;;20831;6816;67203;-73
2022/04/07 09:49:13;;;;;;;0.50;0.40;;;17.30;41.60;;;;;;20595;6816;335557;-76
2022/04/07 09:51:38;;;;;;;0.40;0.40;;;17.20;40.60;;;;;;20598;6816;306849;-78
2022/04/07 09:54:03;;;;;;;1.00;0.40;;;17.30;41.30;;;;;;20599;6816;277434;-85
2022/04/07 09:56:29;;;;;;;1.87;0.53;;;17.20;40.60;;;;;;20579;6816;291346;-75
2022/04/07 09:58:56;;;;;;;5.05;0.50;;;17.30;41.00;;;;;;20812;6815;120082;-71
2022/04/07 10:01:22;;;;;;;0.40;0.40;;;17.00;41.30;;;;;;20808;6816;117116;-71
2022/04/07 10:03:52;;;;;;;3.80;3.55;;;16.60;42.10;;;;;;20605;6816;278314;-72
2022/04/07 10:06:18;;;;;;;5.33;1.53;;;16.50;42.30;;;;;;20582;6816;307432;-74
2022/04/07 10:08:47;;;;;;;2.97;2.87;;;16.70;41.90;;;;;;20603;6816;307336;-78
2022/04/07 10:11:13;;;;;;;0.90;0.60;;;16.70;41.90;;;;;;20586;6816;284595;-75
2022/04/07 10:13:40;;;;;;;1.02;0.50;;;16.80;42.50;;;;;;20818;6816;117239;-76
2022/04/07 10:16:05;;;;;;;2.67;2.57;;;16.70;42.80;;;;;;20814;6816;118026;-73
2022/04/07 10:18:31;;;;;;;1.07;0.70;;;16.30;43.10;;;;;;20794;6816;122402;-72
2022/04/07 10:20:59;;;;;;;0.33;0.30;;;16.10;43.60;;;;;;20789;6816;117637;-87
2022/04/07 10:23:31;;;;;;;0.40;0.40;;;15.80;43.60;;;;;;20800;6816;117726;-75
2022/04/07 10:25:58;;;;;;;0.43;0.43;;;15.60;43.00;;;;;;20786;6816;117697;-76
2022/04/07 10:28:24;;;;;;;0.60;0.57;;;15.30;43.30;;;;;;20771;6816;122131;-75
2022/04/07 10:30:50;;;;;;;0.40;0.40;;;15.30;43.30;;;;;;20755;6816;121419;-77
2022/04/07 10:33:38;;;;;;;0.80;0.37;;;15.20;43.20;;;;;;20587;6816;307936;-75
2022/04/07 10:36:17;;;;;;;1.07;0.30;;;15.40;41.90;;;;;;20591;6816;306055;-76
2022/04/07 10:38:43;;;;;;;0.17;0.17;;;15.90;41.80;;;;;;20819;6816;117407;-74
2022/04/07 10:41:08;;;;;;;0.30;0.30;;;16.00;41.90;;;;;;20606;6816;280836;-73
2022/04/07 10:43:38;;;;;;;1.10;0.40;;;16.10;41.10;;;;;;20589;6816;338485;-73
2022/04/07 10:46:06;;;;;;;0.40;0.40;;;16.30;41.10;;;;;;20805;6816;117658;-75
2022/04/07 10:48:46;;;;;;;0.83;0.30;;;16.30;41.60;;;;;;20769;6816;118483;-72
2022/04/07 10:51:11;;;;;;;0.30;0.30;;;16.10;41.90;;;;;;19970;6816;340292;-71
2022/04/07 10:53:53;;;;;;;0.50;0.37;;;16.20;41.00;;;;;;20600;6816;306808;-72
2022/04/07 10:56:24;;;;;;;0.27;0.27;;;16.50;40.60;;;;;;20790;6816;118318;-73
2022/04/07 10:58:56;;;;;;;0.43;0.40;;;16.40;40.90;;;;;;20814;6816;117337;-81
2022/04/07 11:01:28;;;;;;;0.65;0.50;;;16.20;41.70;;;;;;20597;6816;344693;-70
2022/04/07 11:04:21;;;;;;;2.60;0.37;;;16.30;41.20;;;;;;20608;6816;280789;-68
2022/04/07 11:10:00;;;;;;;0.20;0.20;;;16.30;41.40;;;;;;20816;6815;117273;-69
2022/04/07 11:12:31;;;;;;;1.03;0.20;;;16.30;41.40;;;;;;20752;6816;118411;-75
2022/04/07 11:15:03;;;;;;;0.20;0.20;;;16.10;41.80;;;;;;20781;6816;117097;-71
2022/04/07 11:17:35;;;;;;;0.20;0.20;;;16.00;42.10;;;;;;20809;6816;118651;-69
2022/04/07 11:20:15;;;;;;;0.67;0.60;;;15.90;42.30;;;;;;20601;6816;277071;-70
2022/04/07 11:23:01;;;;;;;1.10;0.30;;;16.20;41.40;;;;;;20606;6816;310809;-69
2022/04/07 11:25:27;;;;;;;2.37;0.20;;;16.60;40.90;;;;;;20604;6816;311504;-71
2022/04/07 11:28:02;;;;;;;1.45;1.35;;;17.10;40.50;;;;;;20608;6816;278620;-69
2022/04/07 11:30:35;;;;;;;0.90;0.90;;;17.40;40.30;;;;;;20799;6816;125323;-69
2022/04/07 11:33:18;;;;;;;0.97;0.97;;;17.20;40.60;;;;;;20779;6816;124601;-67
2022/04/07 11:36:00;;;;;;;0.93;0.83;;;17.20;40.50;;;;;;20812;6816;117136;-71
2022/04/07 11:38:42;;;;;;;1.97;1.80;;;17.00;40.90;;;;;;20582;6816;306938;-73
2022/04/07 11:41:08;;;;;;;1.67;1.57;;;17.20;40.40;;;;;;20591;6816;288746;-74
2022/04/07 11:43:34;;;;;;;0.80;0.17;;;17.50;39.70;;;;;;20600;6816;307391;-72
2022/04/07 11:46:00;;;;;;;1.17;0.40;;;17.70;39.10;;;;;;20789;6816;118579;-72
2022/04/07 11:48:33;;;;;;;3.25;0.30;;;17.70;39.10;;;;;;20578;6816;306835;-68
2022/04/07 11:51:00;;;;;;;1.90;0.70;;;17.70;38.60;;;;;;20568;6816;310781;-69
2022/04/07 11:53:23;;;;;;;1.50;0.43;;;17.90;38.50;;;;;;20802;6816;117186;-70
2022/04/07 11:55:50;;;;;;;0.77;0.40;;;17.70;38.80;;;;;;20602;6816;300071;-70
2022/04/07 11:58:17;;;;;;;2.77;0.23;;;17.70;38.50;;;;;;20794;6816;120991;-71
2022/04/07 12:00:43;;;;;;;0.47;0.47;;;17.50;38.80;;;;;;20601;6816;306321;-71
2022/04/07 12:03:09;;;;;;;0.87;0.50;;;17.50;38.80;;;;;;20809;6816;121102;-72
2022/04/07 12:05:45;;;;;;;1.33;0.55;;;17.40;39.40;;;;;;20602;6816;335648;-72
2022/04/07 12:08:10;;;;;;;0.30;0.30;;;17.30;39.10;;;;;;20788;6816;118449;-72
2022/04/07 12:10:36;;;;;;;3.35;0.50;;;17.20;39.60;;;;;;20589;6816;306631;-73
2022/04/07 12:13:01;;;;;;;0.82;0.30;;;17.20;40.00;;;;;;20591;6816;281851;-73
2022/04/07 12:15:27;;;;;;;0.40;0.30;;;17.40;39.80;;;;;;20594;6816;306902;-72
2022/04/07 12:18:03;;;;;;;0.57;0.27;;;17.50;39.00;;;;;;20577;6816;306583;-73
2022/04/07 12:20:28;;;;;;;1.10;0.20;;;17.50;38.40;;;;;;20527;6816;306992;-73
2022/04/07 12:23:10;;;;;;;0.67;0.30;;;17.50;38.60;;;;;;20588;6815;336980;-73
2022/04/07 12:25:37;;;;;;;0.70;0.30;;;17.50;39.50;;;;;;20590;6816;337103;-73
2022/04/07 12:28:16;;;;;;;0.20;0.20;;;17.40;39.40;;;;;;20804;6816;117726;-76
2022/04/07 12:30:45;;;;;;;0.55;0.20;;;17.10;40.30;;;;;;20587;6816;306487;-71
2022/04/07 12:33:10;;;;;;;0.53;0.30;;;17.00;40.20;;;;;;20810;6816;117148;-70
2022/04/07 12:35:43;;;;;;;0.95;0.30;;;16.60;41.30;;;;;;20814;6816;118321;-71